Time;durP1;ratioP1;P1;durP2;ratioP2;P2;SDS_P1;SDS_P2;PMS_P1;PMS_P2;Temp;Humidity;BMP_temperature;BMP_pressure;BME280_temperature;BME280_humidity;BME280_pressure;Samples;Min_cycle;Max_cycle;Signal;HPM_P1;HPM_P2
2022/07/21 00:01:03;;;;;;;7.30;3.80;;;22.10;99.90;;;;;;5054833;28;20666;-76
2022/07/21 00:03:29;;;;;;;4.60;4.20;;;22.10;99.90;;;;;;5053077;28;20894;-75
2022/07/21 00:05:54;;;;;;;5.30;3.73;;;22.10;99.90;;;;;;5053703;28;20578;-75
2022/07/21 00:08:20;;;;;;;4.80;4.40;;;22.10;99.90;;;;;;5054356;28;21128;-76
2022/07/21 00:10:47;;;;;;;5.07;4.20;;;22.00;99.90;;;;;;5054110;28;20267;-75
2022/07/21 00:13:13;;;;;;;4.70;4.20;;;22.00;99.90;;;;;;5054410;28;20566;-76
2022/07/21 00:15:39;;;;;;;5.50;4.17;;;22.00;99.90;;;;;;5036228;28;20626;-75
2022/07/21 00:18:05;;;;;;;4.37;3.93;;;22.00;99.90;;;;;;5054521;28;21170;-75
2022/07/21 00:20:31;;;;;;;5.03;4.23;;;21.90;99.90;;;;;;5054189;28;20570;-75
2022/07/21 00:22:57;;;;;;;4.63;4.20;;;21.80;99.90;;;;;;5055378;28;20567;-75
2022/07/21 00:25:23;;;;;;;4.83;3.60;;;21.90;99.90;;;;;;5053146;28;20582;-75
2022/07/21 00:27:49;;;;;;;4.87;4.07;;;21.80;99.90;;;;;;5053414;28;20604;-74
2022/07/21 00:30:15;;;;;;;6.13;3.90;;;21.80;99.90;;;;;;5054320;28;20177;-75
2022/07/21 00:32:41;;;;;;;4.17;3.77;;;21.70;99.90;;;;;;5056785;28;20768;-75
2022/07/21 00:35:09;;;;;;;4.27;3.87;;;21.70;99.90;;;;;;5055915;28;20563;-76
2022/07/21 00:37:36;;;;;;;4.67;3.73;;;21.70;99.90;;;;;;5056250;28;20595;-75
2022/07/21 00:40:02;;;;;;;4.30;3.90;;;21.60;99.90;;;;;;5055765;28;20673;-75
2022/07/21 00:42:31;;;;;;;5.60;3.47;;;21.60;99.90;;;;;;5052093;28;20579;-75
2022/07/21 00:44:57;;;;;;;5.53;3.40;;;21.60;99.90;;;;;;5052702;28;20679;-75
2022/07/21 00:47:28;;;;;;;5.03;4.53;;;21.50;99.90;;;;;;5052064;28;20595;-76
2022/07/21 00:49:56;;;;;;;4.53;4.13;;;21.50;99.90;;;;;;5052774;28;20564;-75
2022/07/21 00:52:22;;;;;;;4.73;4.33;;;21.50;99.90;;;;;;5052737;28;20714;-76
2022/07/21 00:54:48;;;;;;;5.30;4.90;;;21.50;99.90;;;;;;5052399;28;21023;-76
2022/07/21 00:57:15;;;;;;;6.17;5.40;;;21.50;99.90;;;;;;5052886;28;20924;-76
2022/07/21 00:59:42;;;;;;;5.63;4.90;;;21.50;99.90;;;;;;5054419;28;20578;-75
2022/07/21 01:02:09;;;;;;;6.27;5.27;;;21.40;99.90;;;;;;5052770;28;20610;-76
2022/07/21 01:04:35;;;;;;;7.30;4.33;;;21.40;99.90;;;;;;5052411;28;20595;-75
2022/07/21 01:07:03;;;;;;;5.27;4.87;;;21.40;99.90;;;;;;5034566;28;20610;-75
2022/07/21 01:09:30;;;;;;;6.63;5.87;;;21.40;99.90;;;;;;5052859;28;21307;-76
2022/07/21 01:11:57;;;;;;;5.67;5.20;;;21.40;99.90;;;;;;5052281;28;20987;-76
2022/07/21 01:14:23;;;;;;;5.37;4.87;;;21.30;99.90;;;;;;5052108;28;20564;-75
2022/07/21 01:16:50;;;;;;;4.80;4.10;;;21.30;99.90;;;;;;5052333;28;20556;-76
2022/07/21 01:19:16;;;;;;;7.93;5.40;;;21.30;99.90;;;;;;5052286;28;20603;-76
2022/07/21 01:21:44;;;;;;;6.13;5.50;;;21.30;99.90;;;;;;5050629;28;20621;-75
2022/07/21 01:24:10;;;;;;;6.93;5.53;;;21.30;99.90;;;;;;5051977;28;20556;-76
2022/07/21 01:26:44;;;;;;;5.33;4.70;;;21.20;99.90;;;;;;5052252;28;20567;-76
2022/07/21 01:29:11;;;;;;;5.70;5.10;;;21.20;99.90;;;;;;5050897;28;21150;-75
2022/07/21 01:31:38;;;;;;;6.07;5.47;;;21.10;99.90;;;;;;5033867;28;20618;-75
2022/07/21 01:34:04;;;;;;;6.47;5.77;;;21.10;99.90;;;;;;5051731;28;20967;-75
2022/07/21 01:36:30;;;;;;;5.77;5.17;;;21.10;99.90;;;;;;5055741;28;20617;-75
2022/07/21 01:41:41;;;;;;;7.07;6.47;;;21.00;99.90;;;;;;5051826;28;20529;-75
2022/07/21 01:44:10;;;;;;;7.03;6.27;;;20.90;99.90;;;;;;5051447;28;20574;-75
2022/07/21 01:46:43;;;;;;;6.70;5.60;;;20.90;99.90;;;;;;5052017;28;20597;-75
2022/07/21 01:49:10;;;;;;;6.37;5.87;;;20.80;99.90;;;;;;5051706;28;20606;-75
2022/07/21 01:51:36;;;;;;;7.90;7.10;;;20.80;99.90;;;;;;5050943;28;20607;-76
2022/07/21 01:54:03;;;;;;;6.30;5.70;;;20.80;99.90;;;;;;5051512;28;20563;-75
2022/07/21 01:56:29;;;;;;;5.33;4.93;;;20.80;99.90;;;;;;5050374;28;20645;-75
2022/07/21 01:58:56;;;;;;;6.33;5.77;;;20.80;99.90;;;;;;5051355;28;21141;-75
2022/07/21 02:01:31;;;;;;;5.83;5.30;;;20.80;99.90;;;;;;5051181;28;20579;-75
2022/07/21 02:04:02;;;;;;;8.97;6.00;;;20.80;99.90;;;;;;5051467;28;20567;-75
2022/07/21 02:06:28;;;;;;;7.50;6.40;;;20.80;99.90;;;;;;5050366;28;20575;-75
2022/07/21 02:08:55;;;;;;;6.90;6.03;;;20.80;99.90;;;;;;5051578;28;20603;-75
2022/07/21 02:11:22;;;;;;;6.63;5.90;;;20.70;99.90;;;;;;5052417;28;20657;-75
2022/07/21 02:13:48;;;;;;;5.33;4.83;;;20.70;99.90;;;;;;5052415;28;20671;-74
2022/07/21 02:16:14;;;;;;;6.80;6.20;;;20.70;99.90;;;;;;5049784;28;20568;-75
2022/07/21 02:18:41;;;;;;;6.97;6.27;;;20.70;99.90;;;;;;5050137;28;20680;-76
2022/07/21 02:21:07;;;;;;;8.10;7.30;;;20.70;99.90;;;;;;5051435;28;20568;-74
2022/07/21 02:23:34;;;;;;;7.70;7.00;;;20.70;99.90;;;;;;5051438;28;20575;-75
2022/07/21 02:26:00;;;;;;;8.70;7.90;;;20.70;99.90;;;;;;5050024;28;20936;-75
2022/07/21 02:28:27;;;;;;;10.33;8.50;;;20.70;99.90;;;;;;5050290;28;20607;-75
2022/07/21 02:30:54;;;;;;;9.30;7.70;;;20.60;99.90;;;;;;5049978;28;20571;-75
2022/07/21 02:33:20;;;;;;;7.97;7.17;;;20.60;99.90;;;;;;5051301;28;20560;-75
2022/07/21 02:35:46;;;;;;;7.77;6.77;;;20.60;99.90;;;;;;5051020;28;20935;-75
2022/07/21 02:38:13;;;;;;;8.47;6.80;;;20.60;99.90;;;;;;5051451;28;20588;-75
2022/07/21 02:40:39;;;;;;;8.97;8.17;;;20.60;99.90;;;;;;5051050;28;20592;-75
2022/07/21 02:43:05;;;;;;;10.30;9.27;;;20.70;99.90;;;;;;5051260;28;20595;-74
2022/07/21 02:45:32;;;;;;;10.13;9.00;;;20.70;99.90;;;;;;5050883;28;20571;-74
2022/07/21 02:48:03;;;;;;;12.67;10.40;;;20.70;99.90;;;;;;5036394;28;20663;-74
2022/07/21 02:50:32;;;;;;;12.13;10.93;;;20.70;99.90;;;;;;5049640;28;20564;-75
2022/07/21 02:53:00;;;;;;;10.10;9.10;;;20.60;99.90;;;;;;5051264;28;21027;-75
2022/07/21 02:55:27;;;;;;;10.17;9.17;;;20.70;99.90;;;;;;5050797;28;20563;-74
2022/07/21 02:58:19;;;;;;;9.50;8.60;;;20.70;99.90;;;;;;5051133;28;20946;-75
2022/07/21 03:00:51;;;;;;;8.60;7.80;;;20.70;99.90;;;;;;5049676;28;20571;-74
2022/07/21 03:03:18;;;;;;;8.77;8.07;;;20.70;99.90;;;;;;5051557;28;20744;-74
2022/07/21 03:05:44;;;;;;;8.93;8.20;;;20.70;99.90;;;;;;5054726;28;20906;-74
2022/07/21 03:08:11;;;;;;;7.70;7.00;;;20.70;99.90;;;;;;5054907;28;20593;-75
2022/07/21 03:10:38;;;;;;;11.17;8.13;;;20.70;99.90;;;;;;5054663;28;20168;-75
2022/07/21 03:13:04;;;;;;;8.20;7.40;;;20.80;99.90;;;;;;5053681;28;20611;-74
2022/07/21 03:15:30;;;;;;;8.00;7.20;;;20.80;99.90;;;;;;5062185;28;20597;-75
2022/07/21 03:17:57;;;;;;;8.43;7.73;;;20.80;99.90;;;;;;5062203;28;20629;-74
2022/07/21 03:20:28;;;;;;;8.30;7.37;;;20.80;99.90;;;;;;5065105;28;20586;-74
2022/07/21 03:22:54;;;;;;;7.80;7.00;;;20.80;99.90;;;;;;5075100;28;20576;-74
2022/07/21 03:25:20;;;;;;;8.27;7.47;;;20.70;99.90;;;;;;5079630;28;20594;-74
2022/07/21 03:27:46;;;;;;;7.03;6.43;;;20.60;99.90;;;;;;5074404;28;20598;-74
2022/07/21 03:30:13;;;;;;;7.50;6.90;;;20.60;99.90;;;;;;5074258;28;21136;-74
2022/07/21 03:32:39;;;;;;;8.10;7.40;;;20.60;99.90;;;;;;5074113;28;20751;-75
2022/07/21 03:35:07;;;;;;;6.87;5.80;;;20.60;99.90;;;;;;5072547;28;20918;-75
2022/07/21 03:37:39;;;;;;;7.10;6.50;;;20.60;99.90;;;;;;5072969;28;21031;-74
2022/07/21 03:40:05;;;;;;;7.20;6.60;;;20.60;99.90;;;;;;5072570;28;20574;-75
2022/07/21 03:42:31;;;;;;;7.27;6.67;;;20.60;99.90;;;;;;5072381;28;20574;-74
2022/07/21 03:44:57;;;;;;;8.93;7.80;;;20.50;99.90;;;;;;5072084;28;21183;-75
2022/07/21 03:47:22;;;;;;;8.00;7.30;;;20.60;99.90;;;;;;5073981;28;20184;-74
2022/07/21 03:49:48;;;;;;;8.57;7.77;;;20.50;99.90;;;;;;5073420;28;20160;-74
2022/07/21 03:52:14;;;;;;;8.57;7.87;;;20.50;99.90;;;;;;5073990;28;20195;-74
2022/07/21 03:54:40;;;;;;;8.10;7.30;;;20.50;99.90;;;;;;5072188;28;20229;-74
2022/07/21 03:57:05;;;;;;;7.30;6.60;;;20.50;99.90;;;;;;5072468;28;20510;-75
2022/07/21 03:59:31;;;;;;;7.77;6.50;;;20.50;99.90;;;;;;5072239;28;20250;-74
2022/07/21 04:01:57;;;;;;;7.50;6.90;;;20.40;99.90;;;;;;5076744;28;20281;-75
2022/07/21 04:04:23;;;;;;;7.70;7.03;;;20.40;99.90;;;;;;5072075;28;20168;-75
2022/07/21 04:06:48;;;;;;;6.67;5.90;;;20.40;99.90;;;;;;5073794;28;20171;-75
2022/07/21 04:09:14;;;;;;;6.60;6.00;;;20.30;99.90;;;;;;5073847;28;20283;-75
2022/07/21 04:11:40;;;;;;;6.03;5.40;;;20.40;99.90;;;;;;5073509;28;20234;-74
2022/07/21 04:14:06;;;;;;;6.20;5.60;;;20.40;99.90;;;;;;5072936;28;20172;-75
2022/07/21 04:16:31;;;;;;;6.67;6.17;;;20.40;99.90;;;;;;5072327;28;20168;-76
2022/07/21 04:18:57;;;;;;;5.83;5.30;;;20.40;99.90;;;;;;5073631;28;20266;-75
2022/07/21 04:21:23;;;;;;;7.40;6.50;;;20.40;99.90;;;;;;5073282;28;20184;-75
2022/07/21 04:23:49;;;;;;;6.60;5.30;;;20.50;99.90;;;;;;5076524;28;20169;-75
2022/07/21 04:26:15;;;;;;;8.97;6.43;;;20.50;99.90;;;;;;5074404;28;20559;-76
2022/07/21 04:28:40;;;;;;;6.90;6.30;;;20.60;99.90;;;;;;5055148;28;20718;-76
2022/07/21 04:31:06;;;;;;;8.00;6.77;;;20.60;99.90;;;;;;5073025;28;20196;-76
2022/07/21 04:33:32;;;;;;;5.67;5.10;;;20.70;99.90;;;;;;5072187;28;20168;-79
2022/07/21 04:35:58;;;;;;;7.10;6.40;;;20.70;99.90;;;;;;5062997;28;20173;-79
2022/07/21 04:38:23;;;;;;;7.10;5.10;;;20.80;99.90;;;;;;5065414;28;20615;-79
2022/07/21 04:40:49;;;;;;;6.43;5.17;;;20.90;99.90;;;;;;5066990;28;20172;-79
2022/07/21 04:43:15;;;;;;;4.70;4.30;;;21.00;99.90;;;;;;5073633;28;20207;-80
2022/07/21 04:45:41;;;;;;;7.00;5.77;;;21.00;99.90;;;;;;5073611;28;20532;-79
2022/07/21 04:48:06;;;;;;;8.20;5.13;;;21.10;99.90;;;;;;5066180;28;20615;-79
2022/07/21 04:50:32;;;;;;;7.07;4.80;;;21.10;99.90;;;;;;5051788;28;20182;-78
2022/07/21 04:52:59;;;;;;;6.43;4.70;;;21.20;99.90;;;;;;5060298;28;20677;-78
2022/07/21 04:55:25;;;;;;;5.13;4.63;;;21.30;99.90;;;;;;5072569;28;20319;-78
2022/07/21 04:57:52;;;;;;;6.60;4.90;;;21.30;99.90;;;;;;5073190;28;21137;-78
2022/07/21 05:00:20;;;;;;;8.27;4.83;;;21.30;99.90;;;;;;5073006;28;20570;-78
2022/07/21 05:02:46;;;;;;;5.40;4.90;;;21.40;99.90;;;;;;5071835;28;20567;-78
2022/07/21 05:05:13;;;;;;;6.00;5.50;;;21.40;99.90;;;;;;5073049;28;20558;-78
2022/07/21 05:07:39;;;;;;;8.30;5.03;;;21.50;99.90;;;;;;5073136;28;20603;-78
2022/07/21 05:10:10;;;;;;;6.03;5.00;;;21.50;99.90;;;;;;5054762;28;20915;-79
2022/07/21 05:12:36;;;;;;;7.73;6.20;;;21.60;99.90;;;;;;5071378;28;20721;-78
2022/07/21 05:15:04;;;;;;;6.57;5.97;;;21.60;99.90;;;;;;5073775;28;20594;-78
2022/07/21 05:17:30;;;;;;;5.03;4.53;;;21.70;99.90;;;;;;5072284;28;20625;-78
2022/07/21 05:19:56;;;;;;;5.53;5.03;;;21.70;99.90;;;;;;5071561;28;20571;-80
2022/07/21 05:22:25;;;;;;;5.73;5.13;;;21.70;99.90;;;;;;5063719;28;20590;-79
2022/07/21 05:24:52;;;;;;;5.20;4.70;;;21.80;99.90;;;;;;5051559;28;21309;-79
2022/07/21 05:27:18;;;;;;;6.33;5.40;;;21.70;99.90;;;;;;5050747;28;20567;-79
2022/07/21 05:29:44;;;;;;;5.70;5.20;;;21.80;99.90;;;;;;5050338;28;20591;-79
2022/07/21 05:32:10;;;;;;;5.57;5.07;;;21.70;99.90;;;;;;5050379;28;21014;-79
2022/07/21 05:34:36;;;;;;;5.63;5.20;;;21.70;99.90;;;;;;5051184;28;20200;-78
2022/07/21 05:37:02;;;;;;;6.07;5.47;;;21.70;99.90;;;;;;5051803;28;20592;-78
2022/07/21 05:39:28;;;;;;;6.33;5.73;;;21.70;99.90;;;;;;5050476;28;20282;-78
2022/07/21 05:41:54;;;;;;;6.47;5.83;;;21.70;99.90;;;;;;5058532;28;20623;-79
2022/07/21 05:44:20;;;;;;;5.97;5.37;;;21.70;99.90;;;;;;5068654;28;20676;-79
2022/07/21 05:46:45;;;;;;;6.43;5.93;;;21.60;99.90;;;;;;5070426;28;20176;-79
2022/07/21 05:49:11;;;;;;;6.07;5.57;;;21.60;99.90;;;;;;5053581;28;20286;-79
2022/07/21 05:51:37;;;;;;;5.77;5.27;;;21.60;99.90;;;;;;5072690;28;20227;-79
2022/07/21 05:54:03;;;;;;;5.57;5.00;;;21.50;99.90;;;;;;5071128;28;20782;-79
2022/07/21 05:56:29;;;;;;;5.57;5.07;;;21.50;99.90;;;;;;5072078;28;20168;-79
2022/07/21 05:58:54;;;;;;;5.93;5.43;;;21.50;99.90;;;;;;5071873;28;20574;-79
2022/07/21 06:01:20;;;;;;;8.30;7.20;;;21.60;99.90;;;;;;5071543;28;20640;-79
2022/07/21 06:03:48;;;;;;;5.90;5.40;;;21.50;99.90;;;;;;5072071;28;20167;-79
2022/07/21 06:06:16;;;;;;;5.63;5.10;;;21.60;99.90;;;;;;5072039;28;20179;-79
2022/07/21 06:08:44;;;;;;;8.30;4.93;;;21.50;99.90;;;;;;5054273;28;21185;-79
2022/07/21 06:11:11;;;;;;;5.83;5.33;;;21.50;99.90;;;;;;5071609;28;20609;-79
2022/07/21 06:13:38;;;;;;;4.83;4.27;;;21.50;99.90;;;;;;5071714;28;20574;-79
2022/07/21 06:16:04;;;;;;;4.27;3.50;;;21.60;99.90;;;;;;5072371;28;20619;-79
2022/07/21 06:18:31;;;;;;;4.70;4.10;;;21.50;99.90;;;;;;5073039;28;20621;-79
2022/07/21 06:20:56;;;;;;;5.47;3.57;;;21.50;99.90;;;;;;5072864;28;20662;-79
2022/07/21 06:23:22;;;;;;;4.53;3.03;;;21.50;99.90;;;;;;5066098;28;21023;-81
2022/07/21 06:25:49;;;;;;;5.97;2.90;;;21.50;99.90;;;;;;5056816;28;20191;-81
2022/07/21 06:28:15;;;;;;;3.40;3.10;;;21.50;99.90;;;;;;5060635;28;20646;-82
2022/07/21 06:30:41;;;;;;;3.57;2.60;;;21.50;99.90;;;;;;5053191;28;20602;-81
2022/07/21 06:33:07;;;;;;;2.90;2.60;;;21.50;99.90;;;;;;5053278;28;20629;-82
2022/07/21 06:35:33;;;;;;;2.73;2.53;;;21.50;99.90;;;;;;5035419;28;20215;-80
2022/07/21 06:37:59;;;;;;;4.90;2.77;;;21.60;99.90;;;;;;5053488;28;20603;-81
2022/07/21 06:40:24;;;;;;;4.33;3.27;;;21.70;99.90;;;;;;5055435;28;20579;-79
2022/07/21 06:42:50;;;;;;;4.03;2.67;;;21.90;99.90;;;;;;5057442;28;20259;-79
2022/07/21 06:45:16;;;;;;;3.10;2.07;;;22.20;99.90;;;;;;5065154;28;20176;-80
2022/07/21 06:47:42;;;;;;;3.90;1.67;;;22.90;99.90;;;;;;5070569;28;20234;-80
2022/07/21 06:50:09;;;;;;;1.80;1.23;;;23.70;99.90;;;;;;5062345;28;20254;-80
2022/07/21 06:52:35;;;;;;;1.93;1.10;;;24.60;99.90;;;;;;5068712;28;20200;-80
2022/07/21 06:55:01;;;;;;;2.70;1.37;;;25.50;99.90;;;;;;5079531;28;20960;-79
2022/07/21 06:57:27;;;;;;;3.10;1.20;;;26.40;99.90;;;;;;5083405;28;20621;-80
2022/07/21 06:59:53;;;;;;;3.83;1.37;;;27.10;99.90;;;;;;5064393;28;20694;-83
2022/07/21 07:02:19;;;;;;;2.03;1.10;;;27.80;99.90;;;;;;5072786;28;20228;-82
2022/07/21 07:04:44;;;;;;;3.40;1.20;;;28.60;99.90;;;;;;5077566;28;20214;-83
2022/07/21 07:07:10;;;;;;;2.43;1.33;;;29.40;99.90;;;;;;5066763;28;20208;-82
2022/07/21 07:09:36;;;;;;;2.83;1.57;;;30.30;99.90;;;;;;5067253;28;20168;-82
2022/07/21 07:12:08;;;;;;;2.33;1.70;;;31.00;99.90;;;;;;5066998;28;21164;-81
2022/07/21 07:14:35;;;;;;;2.93;1.80;;;31.60;99.90;;;;;;5054933;28;20200;-80
2022/07/21 07:17:02;;;;;;;3.07;1.40;;;32.10;99.90;;;;;;5054992;28;20584;-80
2022/07/21 07:19:29;;;;;;;1.70;1.17;;;32.70;99.90;;;;;;5055080;28;20615;-81
2022/07/21 07:21:55;;;;;;;1.70;1.07;;;33.20;99.90;;;;;;5054993;28;20601;-79
2022/07/21 07:24:21;;;;;;;2.47;0.90;;;33.30;99.90;;;;;;5051278;28;21159;-80
2022/07/21 07:26:46;;;;;;;2.50;1.10;;;33.40;99.90;;;;;;5057357;28;20233;-79
2022/07/21 07:29:13;;;;;;;1.67;1.10;;;33.60;99.90;;;;;;5063937;28;20196;-81
2022/07/21 07:31:39;;;;;;;1.60;1.10;;;33.90;99.90;;;;;;5073702;28;20215;-82
2022/07/21 07:34:05;;;;;;;1.47;1.00;;;34.30;99.90;;;;;;5075471;28;20576;-81
2022/07/21 07:36:32;;;;;;;2.00;1.20;;;34.50;99.90;;;;;;5074897;28;20571;-80
2022/07/21 07:38:58;;;;;;;2.10;1.10;;;34.40;99.90;;;;;;5074788;28;20593;-80
2022/07/21 07:41:26;;;;;;;2.10;1.20;;;34.00;99.90;;;;;;5075690;28;20553;-81
2022/07/21 07:43:52;;;;;;;2.07;1.73;;;33.50;99.90;;;;;;5075246;28;21108;-80
2022/07/21 07:46:19;;;;;;;1.80;1.07;;;33.30;99.90;;;;;;5082101;28;20629;-80
2022/07/21 07:48:47;;;;;;;2.43;1.40;;;33.50;99.90;;;;;;5066154;28;20704;-80
2022/07/21 07:51:13;;;;;;;2.93;1.73;;;34.00;99.90;;;;;;5071951;28;20720;-81
2022/07/21 07:53:40;;;;;;;2.77;1.73;;;34.30;99.90;;;;;;5068704;28;20921;-81
2022/07/21 07:56:07;;;;;;;3.93;1.80;;;34.50;99.90;;;;;;5065543;28;20629;-81
2022/07/21 07:58:33;;;;;;;2.00;1.50;;;34.40;98.70;;;;;;5066706;28;20714;-81
2022/07/21 08:00:59;;;;;;;2.40;1.80;;;34.40;98.10;;;;;;5076266;28;20581;-81
2022/07/21 08:03:26;;;;;;;2.63;1.60;;;34.20;97.20;;;;;;5070655;28;20586;-81
2022/07/21 08:05:54;;;;;;;3.33;1.57;;;33.90;96.70;;;;;;5054473;28;21054;-79
2022/07/21 08:08:21;;;;;;;2.30;1.67;;;33.70;96.50;;;;;;5050951;28;20599;-80
2022/07/21 08:10:47;;;;;;;2.37;1.67;;;33.40;96.00;;;;;;5054211;28;20620;-80
2022/07/21 08:13:15;;;;;;;2.20;1.70;;;33.00;95.30;;;;;;5055095;28;20700;-80
2022/07/21 08:15:42;;;;;;;2.47;1.63;;;32.60;95.70;;;;;;5053690;28;20570;-80
2022/07/21 08:18:08;;;;;;;1.87;1.53;;;32.40;96.20;;;;;;5055069;28;20599;-79
2022/07/21 08:20:35;;;;;;;2.97;2.20;;;32.30;96.60;;;;;;5054739;28;21206;-79
2022/07/21 08:23:01;;;;;;;3.00;1.60;;;32.10;96.40;;;;;;5055181;28;20591;-80
2022/07/21 08:25:27;;;;;;;2.47;2.20;;;31.90;96.40;;;;;;5054416;28;20583;-78
2022/07/21 08:27:53;;;;;;;2.93;1.87;;;31.70;96.40;;;;;;5054029;28;21222;-78
2022/07/21 08:30:19;;;;;;;2.10;1.77;;;31.40;96.70;;;;;;5035876;28;20916;-78
2022/07/21 08:32:45;;;;;;;1.87;1.50;;;31.20;97.00;;;;;;5054497;28;20637;-78
2022/07/21 08:35:11;;;;;;;2.07;1.80;;;31.00;97.40;;;;;;5054491;28;20575;-79
2022/07/21 08:37:38;;;;;;;3.20;2.10;;;31.10;98.20;;;;;;5056194;28;20284;-80
2022/07/21 08:40:09;;;;;;;3.30;2.60;;;31.20;98.30;;;;;;5053877;28;20560;-79
2022/07/21 08:42:36;;;;;;;3.10;2.10;;;31.20;97.90;;;;;;5054870;28;20626;-80
2022/07/21 08:45:02;;;;;;;3.67;3.00;;;31.20;97.60;;;;;;5062513;28;20615;-80
2022/07/21 08:47:28;;;;;;;2.57;1.77;;;31.10;97.40;;;;;;5066968;28;20642;-81
2022/07/21 08:49:56;;;;;;;2.87;2.57;;;31.00;97.10;;;;;;5075592;28;20666;-79
2022/07/21 08:52:22;;;;;;;2.33;1.87;;;30.80;96.60;;;;;;5076227;28;20721;-80
2022/07/21 08:54:48;;;;;;;3.80;2.47;;;30.70;96.40;;;;;;5076899;28;20598;-79
2022/07/21 08:57:13;;;;;;;4.00;2.63;;;30.50;96.00;;;;;;5068826;28;20172;-80
2022/07/21 08:59:39;;;;;;;4.50;3.40;;;30.20;95.70;;;;;;5068733;28;20169;-79
2022/07/21 09:02:05;;;;;;;3.70;2.33;;;30.00;95.60;;;;;;5049883;28;20263;-80
2022/07/21 09:04:33;;;;;;;3.60;2.70;;;29.80;95.70;;;;;;5052559;28;20307;-81
2022/07/21 09:07:06;;;;;;;4.00;3.00;;;29.70;96.70;;;;;;5049568;28;20556;-80
2022/07/21 09:09:35;;;;;;;3.10;2.80;;;30.20;98.00;;;;;;5058698;28;20584;-80
2022/07/21 09:12:02;;;;;;;3.60;2.50;;;31.10;99.20;;;;;;5052909;28;20664;-81
2022/07/21 09:14:33;;;;;;;2.63;2.43;;;32.00;99.70;;;;;;5050827;28;20569;-80
2022/07/21 09:17:01;;;;;;;4.43;2.10;;;32.50;97.40;;;;;;5052206;28;20682;-80
2022/07/21 09:19:33;;;;;;;3.10;2.70;;;32.80;96.00;;;;;;5060219;28;20655;-81
2022/07/21 09:22:01;;;;;;;2.20;2.00;;;32.80;94.00;;;;;;5052657;28;20663;-81
2022/07/21 09:24:34;;;;;;;3.93;1.93;;;32.60;91.60;;;;;;5050944;28;21127;-82
2022/07/21 09:27:03;;;;;;;2.67;2.10;;;32.50;91.50;;;;;;5053750;28;20956;-83
2022/07/21 09:29:50;;;;;;;2.80;2.30;;;32.60;91.40;;;;;;5053219;28;20572;-81
2022/07/21 09:32:21;;;;;;;4.43;2.23;;;32.50;90.40;;;;;;5051504;28;20637;-80
2022/07/21 09:34:49;;;;;;;4.70;2.10;;;32.40;90.40;;;;;;5052192;28;20643;-80
2022/07/21 09:37:16;;;;;;;3.00;2.00;;;32.30;89.40;;;;;;5052483;28;20679;-81
2022/07/21 09:39:53;;;;;;;3.37;2.50;;;32.10;89.50;;;;;;5051699;28;20568;-82
2022/07/21 09:42:21;;;;;;;3.13;2.30;;;32.00;88.30;;;;;;5051235;28;20637;-80
2022/07/21 09:44:50;;;;;;;2.90;1.93;;;31.80;88.30;;;;;;5034697;28;20677;-80
2022/07/21 09:47:18;;;;;;;2.90;2.00;;;31.70;88.50;;;;;;5053284;28;20580;-81
2022/07/21 09:49:44;;;;;;;3.53;1.80;;;31.60;88.20;;;;;;5065962;28;20577;-81
2022/07/21 09:52:19;;;;;;;2.30;1.80;;;31.50;87.60;;;;;;5062342;28;20635;-81
2022/07/21 09:54:45;;;;;;;2.77;2.20;;;31.50;88.10;;;;;;5053234;28;20168;-82
2022/07/21 09:57:11;;;;;;;3.00;2.27;;;31.40;88.10;;;;;;5053184;28;20561;-81
2022/07/21 09:59:39;;;;;;;3.13;2.37;;;31.50;87.30;;;;;;5054497;28;20601;-83
2022/07/21 10:02:05;;;;;;;5.43;2.50;;;31.50;87.60;;;;;;5058625;28;20662;-82
2022/07/21 10:04:33;;;;;;;3.93;2.70;;;31.60;88.00;;;;;;5060587;28;20613;-82
2022/07/21 10:07:01;;;;;;;2.47;1.97;;;31.70;87.70;;;;;;5063634;28;21154;-82
2022/07/21 10:09:27;;;;;;;3.27;2.30;;;31.60;86.60;;;;;;5069527;28;21345;-81
2022/07/21 10:11:54;;;;;;;2.87;2.10;;;31.60;85.60;;;;;;5063561;28;20987;-80
2022/07/21 10:14:19;;;;;;;2.90;1.90;;;31.40;84.40;;;;;;5071549;28;20578;-81
2022/07/21 10:16:45;;;;;;;3.57;2.17;;;31.20;84.20;;;;;;5071476;28;20571;-80
2022/07/21 10:19:27;;;;;;;2.40;2.10;;;31.00;84.30;;;;;;5071868;28;20258;-80
2022/07/21 10:21:58;;;;;;;2.97;1.67;;;30.80;84.20;;;;;;5071904;28;20264;-80
2022/07/21 10:24:28;;;;;;;4.67;2.80;;;30.50;85.00;;;;;;5071486;28;20606;-81
2022/07/21 10:27:09;;;;;;;5.23;3.43;;;30.30;86.00;;;;;;5070961;28;20566;-80
2022/07/21 10:29:47;;;;;;;3.70;3.10;;;30.10;84.60;;;;;;5071121;28;21160;-80
2022/07/21 10:32:18;;;;;;;2.30;1.97;;;29.90;84.60;;;;;;5071655;28;20622;-80
2022/07/21 10:34:45;;;;;;;3.20;2.00;;;29.70;84.70;;;;;;5053128;28;20597;-80
2022/07/21 10:37:31;;;;;;;3.20;2.13;;;29.40;84.90;;;;;;5030034;28;20596;-81
2022/07/21 10:39:57;;;;;;;3.80;2.20;;;29.20;85.30;;;;;;5047735;28;20636;-81
2022/07/21 10:42:23;;;;;;;3.70;2.77;;;28.90;85.20;;;;;;5054836;28;20588;-83
2022/07/21 10:44:49;;;;;;;2.43;2.10;;;28.70;85.60;;;;;;5053955;28;20193;-83
2022/07/21 10:47:23;;;;;;;2.60;2.37;;;28.40;86.10;;;;;;5054682;28;20583;-82
2022/07/21 10:49:56;;;;;;;3.23;2.63;;;28.20;87.00;;;;;;5053328;28;20230;-82
2022/07/21 10:52:34;;;;;;;3.07;2.60;;;28.10;88.10;;;;;;5053225;28;20630;-82
2022/07/21 10:55:24;;;;;;;4.70;3.60;;;27.90;89.50;;;;;;5053920;28;20586;-83
2022/07/21 10:58:15;;;;;;;5.83;3.50;;;27.70;90.50;;;;;;5047382;28;20658;-83
2022/07/21 11:01:04;;;;;;;3.63;3.30;;;27.50;91.00;;;;;;5047570;28;21005;-83
2022/07/21 11:03:34;;;;;;;6.73;4.07;;;27.50;91.80;;;;;;5063433;28;20578;-83
2022/07/21 11:06:09;;;;;;;5.07;4.10;;;27.40;92.40;;;;;;5073451;28;20586;-83
2022/07/21 11:08:42;;;;;;;4.73;4.30;;;27.30;93.10;;;;;;5069681;28;20661;-83
2022/07/21 11:11:19;;;;;;;5.30;4.57;;;27.30;93.60;;;;;;5055172;28;20572;-82
2022/07/21 11:14:13;;;;;;;5.10;3.90;;;27.20;94.10;;;;;;5048589;28;21169;-81
2022/07/21 11:16:41;;;;;;;5.20;3.20;;;27.10;94.60;;;;;;5046768;28;20561;-81
2022/07/21 11:19:32;;;;;;;4.60;3.70;;;27.10;94.60;;;;;;5039391;28;20607;-82
2022/07/21 11:22:09;;;;;;;5.77;4.00;;;27.00;95.20;;;;;;5062834;22;20667;-75
2022/07/21 11:24:35;;;;;;;6.63;5.43;;;26.90;95.80;;;;;;5040671;28;20588;-76
2022/07/21 11:27:04;;;;;;;5.57;4.37;;;26.70;96.00;;;;;;5030563;28;20694;-76
2022/07/21 11:29:31;;;;;;;5.03;4.53;;;26.60;96.50;;;;;;5032224;28;20646;-76
2022/07/21 11:31:58;;;;;;;6.80;6.10;;;26.40;97.00;;;;;;5033569;28;21157;-75
2022/07/21 11:34:25;;;;;;;6.17;5.03;;;26.30;97.40;;;;;;5035758;28;20584;-75
2022/07/21 11:37:01;;;;;;;5.80;4.50;;;26.20;97.70;;;;;;5036465;28;20588;-75
2022/07/21 11:39:27;;;;;;;4.83;4.40;;;26.00;98.90;;;;;;5033763;28;20564;-75
2022/07/21 11:41:54;;;;;;;5.53;5.00;;;25.90;99.00;;;;;;5032224;28;20611;-75
2022/07/21 11:44:25;;;;;;;5.60;4.87;;;25.70;99.60;;;;;;5033142;28;20266;-75
2022/07/21 11:46:54;;;;;;;6.20;5.27;;;25.60;99.90;;;;;;5033459;28;20564;-75
2022/07/21 11:49:22;;;;;;;6.50;4.83;;;25.40;99.90;;;;;;5033465;28;20626;-74
2022/07/21 11:51:55;;;;;;;7.60;5.17;;;25.10;99.90;;;;;;5032022;28;21340;-74
2022/07/21 11:54:22;;;;;;;5.10;4.60;;;24.90;99.90;;;;;;5033018;28;20596;-74
2022/07/21 11:56:50;;;;;;;6.70;5.40;;;24.50;99.90;;;;;;5033454;28;21108;-74
2022/07/21 11:59:17;;;;;;;6.77;5.90;;;24.20;99.90;;;;;;5033186;28;20565;-75
2022/07/21 12:01:54;;;;;;;7.43;5.67;;;23.90;99.90;;;;;;5032082;28;20607;-75
2022/07/21 12:04:27;;;;;;;5.47;4.80;;;23.60;99.90;;;;;;5033160;28;20567;-75
2022/07/21 12:06:54;;;;;;;5.37;4.60;;;23.30;99.90;;;;;;5033438;28;20638;-75
2022/07/21 12:09:20;;;;;;;6.13;5.53;;;23.10;99.90;;;;;;5046368;28;20583;-75
2022/07/21 12:11:47;;;;;;;5.33;4.93;;;22.90;99.90;;;;;;5053045;28;20630;-75
2022/07/21 12:14:13;;;;;;;5.27;4.80;;;22.70;99.90;;;;;;5051580;28;20556;-76
2022/07/21 12:16:53;;;;;;;7.57;5.40;;;22.50;99.90;;;;;;5035798;28;20924;-76
2022/07/21 12:19:20;;;;;;;5.40;4.90;;;22.40;99.90;;;;;;5030824;28;20600;-75
2022/07/21 12:21:51;;;;;;;5.33;4.93;;;22.30;99.90;;;;;;5015156;28;20667;-75
2022/07/21 12:24:23;;;;;;;7.57;6.13;;;22.20;99.90;;;;;;5032730;28;20577;-76
2022/07/21 12:26:49;;;;;;;6.67;6.17;;;22.10;99.90;;;;;;5014849;28;20581;-74
2022/07/21 12:29:29;;;;;;;5.47;4.90;;;22.10;99.90;;;;;;5032639;28;20585;-75
2022/07/21 12:31:55;;;;;;;7.27;6.40;;;22.00;99.90;;;;;;5031486;28;20662;-75
2022/07/21 12:34:24;;;;;;;6.30;5.70;;;22.00;99.90;;;;;;5031945;28;20592;-75
2022/07/21 12:36:50;;;;;;;7.20;6.50;;;21.90;99.90;;;;;;5032568;28;20568;-75
2022/07/21 12:42:28;;;;;;;7.63;6.97;;;21.90;99.90;;;;;;5044325;28;20635;-76
2022/07/21 12:44:54;;;;;;;7.50;6.60;;;21.90;99.90;;;;;;5032617;28;20585;-75
2022/07/21 12:47:22;;;;;;;8.30;7.50;;;21.90;99.90;;;;;;5034962;28;20666;-75
2022/07/21 12:49:57;;;;;;;8.40;7.70;;;21.90;99.90;;;;;;5017151;28;20568;-75
2022/07/21 12:52:25;;;;;;;11.27;9.87;;;21.90;99.90;;;;;;5032417;28;20677;-76
2022/07/21 12:54:51;;;;;;;10.50;9.60;;;21.90;99.90;;;;;;5031152;28;20580;-74